createdAt,value
2017-12-30T00:00:55.706Z,4.00
2017-12-30T00:01:55.615Z,4.00
2017-12-30T00:02:55.625Z,4.00
2017-12-30T00:03:55.640Z,4.00
2017-12-30T00:04:55.652Z,4.00
2017-12-30T00:05:55.753Z,4.00
2017-12-30T00:06:55.672Z,4.00
2017-12-30T00:07:55.699Z,4.00
2017-12-30T00:08:55.697Z,4.00
2017-12-30T00:09:55.708Z,4.00
2017-12-30T00:10:55.722Z,4.00
2017-12-30T00:11:55.736Z,4.00
2017-12-30T00:12:55.746Z,4.00
2017-12-30T00:13:55.755Z,4.00
2017-12-30T00:14:55.767Z,4.00
2017-12-30T00:15:55.783Z,4.00
2017-12-30T00:16:55.791Z,4.00
2017-12-30T00:17:55.803Z,4.00
2017-12-30T00:18:55.818Z,4.00
2017-12-30T00:19:55.829Z,4.00
2017-12-30T00:20:55.940Z,4.00
2017-12-30T00:21:55.852Z,4.00
2017-12-30T00:22:55.862Z,4.00
2017-12-30T00:23:55.925Z,4.00
2017-12-30T00:24:55.887Z,4.00
2017-12-30T00:25:55.899Z,4.00
2017-12-30T00:26:55.913Z,4.00
2017-12-30T00:27:55.924Z,4.00
2017-12-30T00:28:55.937Z,4.00
2017-12-30T00:29:55.946Z,4.00
2017-12-30T00:30:55.961Z,4.00
2017-12-30T00:31:55.977Z,4.00
2017-12-30T00:32:55.982Z,4.00
2017-12-30T00:33:55.996Z,4.00
2017-12-30T00:34:56.006Z,4.00
2017-12-30T00:35:56.023Z,4.00
2017-12-30T00:36:56.031Z,4.00
2017-12-30T00:37:56.042Z,4.00
2017-12-30T00:38:56.053Z,4.00
2017-12-30T00:39:56.065Z,4.00
2017-12-30T00:40:56.112Z,4.00
2017-12-30T00:41:56.089Z,4.00
2017-12-30T00:42:56.106Z,4.00
2017-12-30T00:43:56.118Z,4.00
2017-12-30T00:44:56.126Z,4.00
2017-12-30T00:45:56.139Z,4.00
2017-12-30T00:46:56.150Z,4.00
2017-12-30T00:47:56.165Z,4.00
2017-12-30T00:48:56.176Z,4.00
2017-12-30T00:49:56.187Z,4.00
2017-12-30T00:50:56.196Z,4.00
2017-12-30T00:51:56.210Z,4.00
2017-12-30T00:52:56.224Z,4.00
2017-12-30T00:53:56.232Z,4.00
2017-12-30T00:54:56.245Z,4.00
2017-12-30T00:55:56.263Z,4.00
2017-12-30T00:56:56.271Z,4.00
2017-12-30T00:57:56.281Z,4.00
2017-12-30T00:58:56.291Z,4.00
2017-12-30T00:59:56.305Z,4.00
2017-12-30T01:00:56.316Z,4.00
2017-12-30T01:01:56.328Z,4.00
2017-12-30T01:02:56.340Z,4.00
2017-12-30T01:03:56.354Z,4.00
2017-12-30T01:04:56.372Z,4.00
2017-12-30T01:05:56.378Z,4.00
2017-12-30T01:06:56.390Z,4.00
2017-12-30T01:07:56.401Z,4.00
2017-12-30T01:08:56.413Z,4.00
2017-12-30T01:09:56.423Z,4.00
2017-12-30T01:10:56.437Z,4.00
2017-12-30T01:11:56.506Z,4.00
2017-12-30T01:12:56.466Z,4.00
2017-12-30T01:13:56.473Z,4.00
2017-12-30T01:14:56.484Z,4.00
2017-12-30T01:15:56.495Z,4.00
2017-12-30T01:16:56.509Z,4.00
2017-12-30T01:17:56.520Z,4.00
2017-12-30T01:18:56.532Z,4.00
2017-12-30T01:19:56.546Z,4.00
2017-12-30T01:20:56.557Z,4.00
2017-12-30T01:21:56.570Z,4.00
2017-12-30T01:22:56.597Z,4.00
2017-12-30T01:23:56.593Z,4.00
2017-12-30T01:24:56.609Z,4.00
2017-12-30T01:25:56.615Z,4.00
2017-12-30T01:26:56.628Z,4.00
2017-12-30T01:27:56.640Z,4.00
2017-12-30T01:28:56.653Z,4.00
2017-12-30T01:29:56.664Z,4.00
2017-12-30T01:30:56.683Z,4.00
2017-12-30T01:31:56.688Z,4.00
2017-12-30T01:32:56.701Z,4.00
2017-12-30T01:33:56.713Z,4.00
2017-12-30T01:34:56.724Z,4.00
2017-12-30T01:35:56.738Z,4.00
2017-12-30T01:36:56.752Z,4.00
2017-12-30T01:37:56.761Z,4.00
2017-12-30T01:38:56.773Z,4.00
2017-12-30T01:39:56.785Z,4.00
2017-12-30T01:40:56.798Z,4.00
2017-12-30T01:41:56.808Z,4.00
2017-12-30T01:42:56.819Z,4.00
2017-12-30T01:43:56.832Z,4.00
2017-12-30T01:44:56.846Z,4.00
2017-12-30T01:45:56.855Z,4.00
2017-12-30T01:46:56.867Z,4.00
2017-12-30T01:47:56.880Z,4.00
2017-12-30T01:48:56.890Z,4.00
2017-12-30T01:49:56.903Z,4.00
2017-12-30T01:50:56.924Z,4.00
2017-12-30T01:51:56.929Z,4.00
2017-12-30T01:52:56.940Z,4.00
2017-12-30T01:53:57.058Z,4.00
2017-12-30T01:54:56.964Z,4.00
2017-12-30T01:55:56.975Z,4.00
2017-12-30T01:56:56.987Z,4.00
2017-12-30T01:57:57.012Z,4.00
2017-12-30T01:58:57.017Z,4.00
2017-12-30T01:59:57.028Z,4.00
2017-12-30T02:00:57.036Z,4.00
2017-12-30T02:01:57.049Z,4.00
2017-12-30T02:02:57.062Z,4.00
2017-12-30T02:03:57.071Z,4.00
2017-12-30T02:04:57.084Z,4.00
2017-12-30T02:05:57.099Z,4.00
2017-12-30T02:06:57.107Z,4.00
2017-12-30T02:07:57.123Z,4.00
2017-12-30T02:08:57.132Z,4.00
2017-12-30T02:09:57.144Z,4.00
2017-12-30T02:10:57.155Z,4.00
2017-12-30T02:11:57.166Z,4.00
2017-12-30T02:12:57.178Z,4.00
2017-12-30T02:13:57.189Z,4.00
2017-12-30T02:14:57.203Z,4.00
2017-12-30T02:15:57.219Z,4.00
2017-12-30T02:16:57.230Z,4.00
2017-12-30T02:17:57.240Z,4.00
2017-12-30T02:18:57.254Z,4.00
2017-12-30T02:19:57.266Z,4.00
2017-12-30T02:20:57.278Z,4.00
2017-12-30T02:21:57.286Z,4.00
2017-12-30T02:22:57.299Z,4.00
2017-12-30T02:23:57.311Z,4.00
2017-12-30T02:24:57.322Z,4.00
2017-12-30T02:25:57.335Z,4.00
2017-12-30T02:26:57.532Z,4.00
2017-12-30T02:27:57.361Z,4.00
2017-12-30T02:28:57.370Z,4.00
2017-12-30T02:29:57.386Z,4.00
2017-12-30T02:30:57.394Z,4.00
2017-12-30T02:31:57.406Z,4.00
2017-12-30T02:32:57.431Z,4.00
2017-12-30T02:33:57.432Z,4.00
2017-12-30T02:34:57.456Z,4.00
2017-12-30T02:35:57.456Z,4.00
2017-12-30T02:36:57.471Z,4.00
2017-12-30T02:37:57.476Z,4.00
2017-12-30T02:38:57.486Z,4.00
2017-12-30T02:39:57.515Z,4.00
2017-12-30T02:40:57.517Z,4.00
2017-12-30T02:41:57.531Z,4.00
2017-12-30T02:42:57.539Z,4.00
2017-12-30T02:43:57.550Z,4.00
2017-12-30T02:44:57.564Z,4.00
2017-12-30T02:45:57.576Z,4.00
2017-12-30T02:46:57.589Z,4.00
2017-12-30T02:47:57.601Z,4.00
2017-12-30T02:48:57.610Z,4.00
2017-12-30T02:49:57.621Z,4.00
2017-12-30T02:50:57.639Z,4.00
2017-12-30T02:51:57.646Z,4.00
2017-12-30T02:52:57.662Z,4.00
2017-12-30T02:53:57.669Z,4.00
2017-12-30T02:54:57.682Z,4.00
2017-12-30T02:55:57.696Z,4.00
2017-12-30T02:56:57.710Z,4.00
2017-12-30T02:57:57.718Z,4.00
2017-12-30T02:58:57.730Z,4.00
2017-12-30T02:59:57.749Z,4.00
2017-12-30T03:00:57.758Z,4.00
2017-12-30T03:01:57.758Z,4.00
2017-12-30T03:02:57.771Z,4.00
2017-12-30T03:03:57.782Z,4.00
2017-12-30T03:04:57.795Z,4.00
2017-12-30T03:05:57.807Z,4.00
2017-12-30T03:06:57.819Z,4.00
2017-12-30T03:07:57.832Z,4.00
2017-12-30T03:08:57.843Z,4.00
2017-12-30T03:09:57.855Z,4.00
2017-12-30T03:10:57.867Z,4.00
2017-12-30T03:11:57.879Z,4.00
2017-12-30T03:12:57.891Z,4.00
2017-12-30T03:13:57.903Z,4.00
2017-12-30T03:14:57.917Z,4.00
2017-12-30T03:15:57.927Z,4.00
2017-12-30T03:16:57.939Z,4.00
2017-12-30T03:17:57.951Z,4.00
2017-12-30T03:18:57.962Z,4.00
2017-12-30T03:19:57.980Z,4.00
2017-12-30T03:20:58.006Z,4.00
2017-12-30T03:21:57.999Z,4.00
2017-12-30T03:22:58.011Z,4.00
2017-12-30T03:23:58.022Z,4.00
2017-12-30T03:24:58.037Z,4.00
2017-12-30T03:25:58.046Z,4.00
2017-12-30T03:26:58.058Z,4.00
2017-12-30T03:27:58.070Z,4.00
2017-12-30T03:28:58.084Z,4.00
2017-12-30T03:29:58.094Z,4.00
2017-12-30T03:30:58.110Z,4.00
2017-12-30T03:31:58.117Z,4.00
2017-12-30T03:32:58.134Z,4.00
2017-12-30T03:33:58.142Z,4.00
2017-12-30T03:34:58.153Z,4.00
2017-12-30T03:35:58.171Z,4.00
2017-12-30T03:36:58.180Z,4.00
2017-12-30T03:37:58.190Z,4.00
2017-12-30T03:38:58.202Z,4.00
2017-12-30T03:39:58.214Z,4.00
2017-12-30T03:40:58.230Z,4.00
2017-12-30T03:41:58.237Z,4.00
2017-12-30T03:42:58.249Z,4.00
2017-12-30T03:43:58.263Z,4.00
2017-12-30T03:44:58.273Z,4.00
2017-12-30T03:45:58.285Z,4.00
2017-12-30T03:46:58.296Z,4.00
2017-12-30T03:47:58.309Z,4.00
2017-12-30T03:48:58.321Z,4.00
2017-12-30T03:49:58.334Z,4.00
2017-12-30T03:50:58.344Z,4.00
2017-12-30T03:51:58.356Z,4.00
2017-12-30T03:52:58.368Z,4.00
2017-12-30T03:53:58.380Z,4.00
2017-12-30T03:54:58.394Z,4.00
2017-12-30T03:55:58.404Z,4.00
2017-12-30T03:56:58.417Z,4.00
2017-12-30T03:57:58.427Z,4.00
2017-12-30T03:58:58.439Z,4.00
2017-12-30T03:59:58.453Z,4.00
2017-12-30T04:00:58.464Z,4.00
2017-12-30T04:01:58.474Z,4.00
2017-12-30T04:02:58.487Z,4.00
2017-12-30T04:03:58.498Z,4.00
2017-12-30T04:04:58.513Z,4.00
2017-12-30T04:05:58.527Z,4.00
2017-12-30T04:06:58.535Z,4.00
2017-12-30T04:07:58.546Z,4.00
2017-12-30T04:08:58.558Z,4.00
2017-12-30T04:09:58.582Z,4.00
2017-12-30T04:10:58.580Z,4.00
2017-12-30T04:11:58.592Z,4.00
2017-12-30T04:12:58.604Z,4.00
2017-12-30T04:13:58.614Z,4.00
2017-12-30T04:14:58.627Z,4.00
2017-12-30T04:15:58.638Z,4.00
2017-12-30T04:16:58.651Z,4.00
2017-12-30T04:17:58.665Z,4.00
2017-12-30T04:18:58.675Z,4.00
2017-12-30T04:19:58.686Z,4.00
2017-12-30T04:20:58.699Z,4.00
2017-12-30T04:21:58.709Z,4.00
2017-12-30T04:22:58.722Z,4.00
2017-12-30T04:23:58.733Z,4.00
2017-12-30T04:24:58.744Z,4.00
2017-12-30T04:25:58.760Z,4.00
2017-12-30T04:26:58.770Z,4.00
2017-12-30T04:27:58.778Z,4.00
2017-12-30T04:28:58.790Z,4.00
2017-12-30T04:29:58.805Z,4.00
2017-12-30T04:30:58.815Z,4.00
2017-12-30T04:31:58.824Z,4.00
2017-12-30T04:32:58.849Z,4.00
2017-12-30T04:33:58.848Z,4.00
2017-12-30T04:34:58.860Z,4.00
2017-12-30T04:35:58.873Z,4.00
2017-12-30T04:36:58.885Z,4.00
2017-12-30T04:37:58.896Z,4.00
2017-12-30T04:38:58.912Z,4.00
2017-12-30T04:39:58.919Z,4.00
2017-12-30T04:40:58.931Z,4.00
2017-12-30T04:41:58.942Z,4.00
2017-12-30T04:42:58.954Z,4.00
2017-12-30T04:43:58.973Z,4.00
2017-12-30T04:44:58.982Z,4.00
2017-12-30T04:45:58.990Z,4.00
2017-12-30T04:46:59.000Z,4.00
2017-12-30T04:47:59.013Z,4.00
2017-12-30T04:48:59.025Z,4.00
2017-12-30T04:49:59.041Z,4.00
2017-12-30T04:50:59.046Z,4.00
2017-12-30T04:51:59.059Z,4.00
2017-12-30T04:52:59.070Z,4.00
2017-12-30T04:53:59.083Z,4.00
2017-12-30T04:54:59.095Z,4.00
2017-12-30T04:55:59.107Z,4.00
2017-12-30T04:56:59.120Z,4.00
2017-12-30T04:57:59.132Z,4.00
2017-12-30T04:58:59.142Z,4.00
2017-12-30T04:59:59.152Z,4.00
2017-12-30T05:00:59.170Z,4.00
2017-12-30T05:01:59.176Z,4.00
2017-12-30T05:02:59.187Z,4.00
2017-12-30T05:03:59.201Z,4.00
2017-12-30T05:04:59.214Z,4.00
2017-12-30T05:05:59.224Z,4.00
2017-12-30T05:06:59.235Z,4.00
2017-12-30T05:07:59.247Z,4.00
2017-12-30T05:08:59.261Z,4.00
2017-12-30T05:09:59.271Z,4.00
2017-12-30T05:10:59.280Z,4.00
2017-12-30T05:11:59.294Z,4.00
2017-12-30T05:12:59.306Z,4.00
2017-12-30T05:13:59.318Z,4.00
2017-12-30T05:14:59.329Z,4.00
2017-12-30T05:15:59.341Z,4.00
2017-12-30T05:16:59.352Z,4.00
2017-12-30T05:17:59.364Z,4.00
2017-12-30T05:18:59.375Z,4.00
2017-12-30T05:19:59.387Z,4.00
2017-12-30T05:20:59.402Z,4.00
2017-12-30T05:21:59.410Z,4.00
2017-12-30T05:22:59.424Z,4.00
2017-12-30T05:23:59.434Z,4.00
2017-12-30T05:24:59.445Z,4.00
2017-12-30T05:25:59.464Z,4.00
2017-12-30T05:26:59.470Z,4.00
2017-12-30T05:27:59.481Z,4.00
2017-12-30T05:28:59.493Z,4.00
2017-12-30T05:29:59.505Z,4.00
2017-12-30T05:30:59.520Z,4.00
2017-12-30T05:31:59.628Z,4.00
2017-12-30T05:32:59.540Z,4.00
2017-12-30T05:33:59.551Z,4.00
2017-12-30T05:34:59.564Z,4.00
2017-12-30T05:35:59.575Z,4.00
2017-12-30T05:36:59.586Z,4.00
2017-12-30T05:37:59.598Z,4.00
2017-12-30T05:38:59.622Z,4.00
2017-12-30T05:39:59.627Z,4.00
2017-12-30T05:40:59.634Z,4.00
2017-12-30T05:41:59.645Z,4.00
2017-12-30T05:42:59.664Z,4.00
2017-12-30T05:43:59.668Z,4.00
2017-12-30T05:44:59.680Z,4.00
2017-12-30T05:45:59.692Z,4.00
2017-12-30T05:46:59.709Z,4.00
2017-12-30T05:47:59.717Z,4.00
2017-12-30T05:48:59.728Z,4.00
2017-12-30T05:49:59.742Z,4.00
2017-12-30T05:50:59.793Z,4.00
2017-12-30T05:51:59.761Z,4.00
2017-12-30T05:52:59.774Z,4.00
2017-12-30T05:53:59.786Z,4.00
2017-12-30T05:54:59.797Z,4.00
2017-12-30T05:55:59.807Z,4.00
2017-12-30T05:56:59.820Z,4.00
2017-12-30T05:57:59.831Z,4.00
2017-12-30T05:58:59.843Z,4.00
2017-12-30T05:59:59.855Z,4.00
2017-12-30T06:00:59.866Z,4.00
2017-12-30T06:01:59.878Z,4.00
2017-12-30T06:02:59.890Z,4.00
2017-12-30T06:03:59.904Z,4.00
2017-12-30T06:04:59.912Z,4.00
2017-12-30T06:05:59.926Z,4.00
2017-12-30T06:06:59.939Z,4.00
2017-12-30T06:07:59.948Z,4.00
2017-12-30T06:08:59.960Z,4.00
2017-12-30T06:09:59.975Z,4.00
2017-12-30T06:10:59.984Z,4.00
2017-12-30T06:11:59.996Z,4.00
2017-12-30T06:13:00.007Z,4.00
2017-12-30T06:14:00.027Z,4.00
2017-12-30T06:15:00.043Z,4.00
2017-12-30T06:16:00.042Z,4.00
2017-12-30T06:17:00.055Z,4.00
2017-12-30T06:18:00.070Z,4.00
2017-12-30T06:19:00.077Z,4.00
2017-12-30T06:20:00.090Z,4.00
2017-12-30T06:21:00.102Z,4.00
2017-12-30T06:22:00.112Z,4.00
2017-12-30T06:23:00.126Z,4.00
2017-12-30T06:24:00.137Z,4.00
2017-12-30T06:25:00.148Z,4.00
2017-12-30T06:26:00.158Z,4.00
2017-12-30T06:27:00.176Z,4.00
2017-12-30T06:28:00.182Z,4.00
2017-12-30T06:29:00.195Z,4.00
2017-12-30T06:30:00.207Z,4.00
2017-12-30T06:31:00.218Z,4.00
2017-12-30T06:32:00.228Z,4.00
2017-12-30T06:33:00.242Z,4.00
2017-12-30T06:34:00.255Z,4.00
2017-12-30T06:35:00.275Z,4.00
2017-12-30T06:36:00.277Z,4.00
2017-12-30T06:37:00.289Z,4.00
2017-12-30T06:38:00.300Z,4.00
2017-12-30T06:39:00.313Z,4.00
2017-12-30T06:40:00.324Z,4.00
2017-12-30T06:41:00.340Z,4.00
2017-12-30T06:42:00.435Z,4.00
2017-12-30T06:43:00.360Z,4.00
2017-12-30T06:44:00.372Z,4.00
2017-12-30T06:45:00.385Z,4.00
2017-12-30T06:46:00.398Z,4.00
2017-12-30T06:47:00.416Z,4.00
2017-12-30T06:48:00.418Z,4.00
2017-12-30T06:49:00.432Z,4.00
2017-12-30T06:50:00.443Z,4.00
2017-12-30T06:51:00.459Z,4.00
2017-12-30T06:52:00.469Z,4.00
2017-12-30T06:53:00.477Z,4.00
2017-12-30T06:54:00.494Z,4.00
2017-12-30T06:55:00.505Z,4.00
2017-12-30T06:56:00.520Z,4.00
2017-12-30T06:57:00.531Z,4.00
2017-12-30T06:58:00.539Z,4.00
2017-12-30T06:59:00.549Z,4.00
2017-12-30T07:00:00.562Z,4.00
2017-12-30T07:01:00.662Z,4.00
2017-12-30T07:02:00.588Z,4.00
2017-12-30T07:03:00.733Z,4.00
2017-12-30T07:04:00.619Z,4.00
2017-12-30T07:05:00.645Z,4.00
2017-12-30T07:06:00.634Z,4.00
2017-12-30T07:07:00.648Z,4.00
2017-12-30T07:08:00.656Z,4.00
2017-12-30T07:09:00.671Z,4.00
2017-12-30T07:10:00.683Z,4.00
2017-12-30T07:11:00.691Z,4.00
2017-12-30T07:12:00.706Z,4.00
2017-12-30T07:13:00.718Z,0.00
2017-12-30T07:14:00.728Z,0.00
2017-12-30T07:15:00.740Z,4.00
2017-12-30T07:16:00.753Z,4.00
2017-12-30T07:17:00.999Z,4.00
2017-12-30T07:18:00.774Z,4.00
2017-12-30T07:19:00.790Z,4.00
2017-12-30T07:20:00.800Z,4.00
2017-12-30T07:21:00.812Z,4.00
2017-12-30T07:22:00.825Z,4.00
2017-12-30T07:23:00.835Z,8.00
2017-12-30T07:24:00.846Z,4.00
2017-12-30T07:25:00.859Z,4.00
2017-12-30T07:26:00.872Z,8.00
2017-12-30T07:27:00.885Z,8.00
2017-12-30T07:28:00.897Z,8.00
2017-12-30T07:29:00.908Z,8.00
2017-12-30T07:30:00.920Z,8.00
2017-12-30T07:31:00.933Z,8.00
2017-12-30T07:32:00.945Z,8.00
2017-12-30T07:33:00.956Z,12.00
2017-12-30T07:34:00.969Z,8.00
2017-12-30T07:35:00.980Z,12.00
2017-12-30T07:36:00.993Z,12.00
2017-12-30T07:37:01.005Z,12.00
2017-12-30T07:38:01.015Z,12.00
2017-12-30T07:39:01.028Z,16.00
2017-12-30T07:40:01.045Z,16.00
2017-12-30T07:41:01.052Z,16.00
2017-12-30T07:42:01.064Z,16.00
2017-12-30T07:43:01.077Z,16.00
2017-12-30T07:44:01.087Z,16.00
2017-12-30T07:45:01.100Z,16.00
2017-12-30T07:46:01.111Z,20.00
2017-12-30T07:47:01.122Z,24.00
2017-12-30T07:48:01.135Z,28.00
2017-12-30T07:49:01.149Z,28.00
2017-12-30T07:50:01.159Z,28.00
2017-12-30T07:51:01.171Z,28.00
2017-12-30T07:52:01.189Z,32.00
2017-12-30T07:53:01.198Z,32.00
2017-12-30T07:54:01.209Z,36.00
2017-12-30T07:55:01.217Z,36.00
2017-12-30T07:56:01.230Z,40.00
2017-12-30T07:57:01.249Z,48.00
2017-12-30T07:58:01.253Z,56.00
2017-12-30T07:59:01.264Z,68.00
2017-12-30T08:00:01.281Z,60.00
2017-12-30T08:01:01.291Z,56.00
2017-12-30T08:02:01.306Z,52.00
2017-12-30T08:03:01.312Z,52.00
2017-12-30T08:04:01.330Z,60.00
2017-12-30T08:05:01.347Z,68.00
2017-12-30T08:06:01.347Z,84.00
2017-12-30T08:07:01.361Z,96.00
2017-12-30T08:08:01.374Z,108.00
2017-12-30T08:09:01.382Z,112.00
2017-12-30T08:10:01.397Z,124.00
2017-12-30T08:11:01.405Z,136.00
2017-12-30T08:12:01.418Z,160.00
2017-12-30T08:13:01.429Z,188.00
2017-12-30T08:14:01.441Z,220.00
2017-12-30T08:15:01.453Z,240.00
2017-12-30T08:16:01.467Z,236.00
2017-12-30T08:17:01.478Z,216.00
2017-12-30T08:18:01.491Z,196.00
2017-12-30T08:19:01.500Z,188.00
2017-12-30T08:20:01.512Z,192.00
2017-12-30T08:21:01.533Z,200.00
2017-12-30T08:22:01.548Z,224.00
2017-12-30T08:23:01.552Z,268.00
2017-12-30T08:24:01.561Z,316.00
2017-12-30T08:25:01.574Z,348.00
2017-12-30T08:26:01.585Z,356.00
2017-12-30T08:27:01.593Z,352.00
2017-12-30T08:28:01.606Z,320.00
2017-12-30T08:29:01.626Z,288.00
2017-12-30T08:30:01.627Z,264.00
2017-12-30T08:31:01.661Z,260.00
2017-12-30T08:32:01.654Z,248.00
2017-12-30T08:33:01.668Z,216.00
2017-12-30T08:34:01.683Z,216.00
2017-12-30T08:35:01.690Z,228.00
2017-12-30T08:36:01.700Z,224.00
2017-12-30T08:37:01.713Z,232.00
2017-12-30T08:38:01.722Z,236.00
2017-12-30T08:39:01.735Z,216.00
2017-12-30T08:40:01.790Z,212.00
2017-12-30T08:41:01.759Z,208.00
2017-12-30T08:42:01.830Z,224.00
2017-12-30T08:43:01.784Z,252.00
2017-12-30T08:44:01.794Z,272.00
2017-12-30T08:45:01.807Z,308.00
2017-12-30T08:46:01.819Z,352.00
2017-12-30T08:47:01.833Z,412.00
2017-12-30T08:48:01.875Z,480.00
2017-12-30T08:49:01.855Z,492.00
2017-12-30T08:50:01.865Z,440.00
2017-12-30T08:51:01.876Z,392.00
2017-12-30T08:52:01.891Z,388.00
2017-12-30T08:53:01.905Z,428.00
2017-12-30T08:54:01.915Z,472.00
2017-12-30T08:55:01.924Z,472.00
2017-12-30T08:56:01.936Z,484.00
2017-12-30T08:57:01.954Z,464.00
2017-12-30T08:58:01.959Z,468.00
2017-12-30T08:59:01.970Z,476.00
2017-12-30T09:00:01.982Z,496.00
2017-12-30T09:01:01.995Z,532.00
2017-12-30T09:02:02.016Z,536.00
2017-12-30T09:03:02.020Z,528.00
2017-12-30T09:04:02.033Z,544.00
2017-12-30T09:05:02.044Z,600.00
2017-12-30T09:06:02.052Z,740.00
2017-12-30T09:07:02.065Z,868.00
2017-12-30T09:08:02.082Z,824.00
2017-12-30T09:09:02.096Z,728.00
2017-12-30T09:10:02.103Z,712.00
2017-12-30T09:11:02.115Z,752.00
2017-12-30T09:12:02.126Z,756.00
2017-12-30T09:13:02.137Z,704.00
2017-12-30T09:14:02.150Z,668.00
2017-12-30T09:15:02.160Z,672.00
2017-12-30T09:16:02.176Z,708.00
2017-12-30T09:17:02.187Z,756.00
2017-12-30T09:18:02.196Z,772.00
2017-12-30T09:19:02.208Z,800.00
2017-12-30T09:20:02.220Z,852.00
2017-12-30T09:21:02.232Z,848.00
2017-12-30T09:22:02.245Z,804.00
2017-12-30T09:23:02.256Z,732.00
2017-12-30T09:24:02.267Z,676.00
2017-12-30T09:25:02.281Z,588.00
2017-12-30T09:26:02.293Z,540.00
2017-12-30T09:27:02.304Z,580.00
2017-12-30T09:28:02.314Z,628.00
2017-12-30T09:29:02.326Z,744.00
2017-12-30T09:30:02.338Z,692.00
2017-12-30T09:31:02.358Z,656.00
2017-12-30T09:32:02.363Z,608.00
2017-12-30T09:33:02.377Z,656.00
2017-12-30T09:34:02.386Z,628.00
2017-12-30T09:35:02.399Z,652.00
2017-12-30T09:36:02.414Z,608.00
2017-12-30T09:37:02.424Z,584.00
2017-12-30T09:38:02.434Z,608.00
2017-12-30T09:39:02.452Z,608.00
2017-12-30T09:40:02.459Z,536.00
2017-12-30T09:41:02.473Z,620.00
2017-12-30T09:42:02.489Z,628.00
2017-12-30T09:43:02.493Z,684.00
2017-12-30T09:44:02.507Z,624.00
2017-12-30T09:45:02.525Z,580.00
2017-12-30T09:46:02.530Z,536.00
2017-12-30T09:47:02.541Z,496.00
2017-12-30T09:48:02.573Z,536.00
2017-12-30T09:49:02.567Z,584.00
2017-12-30T09:50:02.577Z,720.00
2017-12-30T09:51:02.588Z,748.00
2017-12-30T09:52:02.700Z,888.00
2017-12-30T09:53:02.617Z,692.00
2017-12-30T09:54:02.624Z,724.00
2017-12-30T09:55:02.639Z,692.00
2017-12-30T09:56:02.656Z,732.00
2017-12-30T09:57:02.672Z,756.00
2017-12-30T09:58:02.671Z,680.00
2017-12-30T09:59:02.684Z,660.00
2017-12-30T10:00:02.699Z,664.00
2017-12-30T10:01:02.715Z,716.00
2017-12-30T10:02:02.724Z,680.00
2017-12-30T10:03:02.734Z,744.00
2017-12-30T10:04:02.745Z,724.00
2017-12-30T10:05:02.755Z,820.00
2017-12-30T10:06:02.765Z,656.00
2017-12-30T10:07:02.779Z,540.00
2017-12-30T10:08:02.791Z,516.00
2017-12-30T10:09:02.801Z,680.00
2017-12-30T10:10:02.814Z,724.00
2017-12-30T10:11:02.828Z,868.00
2017-12-30T10:12:02.846Z,832.00
2017-12-30T10:13:02.849Z,760.00
2017-12-30T10:14:02.861Z,704.00
2017-12-30T10:15:02.873Z,796.00
2017-12-30T10:16:02.887Z,884.00
2017-12-30T10:17:02.897Z,880.00
2017-12-30T10:18:02.910Z,796.00
2017-12-30T10:19:02.923Z,772.00
2017-12-30T10:20:02.936Z,752.00
2017-12-30T10:21:02.947Z,760.00
2017-12-30T10:22:02.960Z,804.00
2017-12-30T10:23:02.976Z,880.00
2017-12-30T10:24:02.988Z,908.00
2017-12-30T10:25:02.996Z,888.00
2017-12-30T10:26:03.007Z,820.00
2017-12-30T10:27:03.018Z,864.00
2017-12-30T10:28:03.031Z,920.00
2017-12-30T10:29:03.043Z,884.00
2017-12-30T10:30:03.056Z,820.00
2017-12-30T10:31:03.066Z,896.00
2017-12-30T10:32:03.077Z,936.00
2017-12-30T10:33:03.094Z,948.00
2017-12-30T10:34:03.101Z,896.00
2017-12-30T10:35:03.114Z,852.00
2017-12-30T10:36:03.154Z,884.00
2017-12-30T10:37:03.139Z,892.00
2017-12-30T10:38:03.167Z,848.00
2017-12-30T10:39:03.169Z,852.00
2017-12-30T10:40:03.178Z,856.00
2017-12-30T10:41:03.188Z,940.00
2017-12-30T10:42:03.200Z,824.00
2017-12-30T10:43:03.212Z,820.00
2017-12-30T10:44:03.224Z,816.00
2017-12-30T10:45:03.241Z,912.00
2017-12-30T10:46:03.248Z,944.00
2017-12-30T10:47:03.263Z,972.00
2017-12-30T10:48:03.277Z,776.00
2017-12-30T10:49:03.358Z,760.00
2017-12-30T10:50:03.300Z,656.00
2017-12-30T10:51:03.306Z,700.00
2017-12-30T10:52:03.321Z,732.00
2017-12-30T10:53:03.335Z,520.00
2017-12-30T10:54:03.346Z,584.00
2017-12-30T10:55:03.361Z,708.00
2017-12-30T10:56:03.369Z,696.00
2017-12-30T10:57:03.382Z,644.00
2017-12-30T10:58:03.493Z,664.00
2017-12-30T10:59:03.416Z,680.00
2017-12-30T11:00:03.421Z,864.00
2017-12-30T11:01:03.430Z,788.00
2017-12-30T11:02:03.444Z,580.00
2017-12-30T11:03:03.454Z,472.00
2017-12-30T11:04:03.473Z,512.00
2017-12-30T11:05:03.490Z,536.00
2017-12-30T11:06:03.495Z,504.00
2017-12-30T11:07:03.503Z,528.00
2017-12-30T11:08:03.522Z,596.00
2017-12-30T11:09:03.531Z,508.00
2017-12-30T11:10:03.546Z,508.00
2017-12-30T11:11:03.555Z,516.00
2017-12-30T11:12:03.573Z,636.00
2017-12-30T11:13:03.581Z,616.00
2017-12-30T11:14:03.592Z,648.00
2017-12-30T11:15:03.608Z,536.00
2017-12-30T11:16:03.614Z,532.00
2017-12-30T11:17:03.634Z,508.00
2017-12-30T11:18:03.640Z,436.00
2017-12-30T11:19:03.655Z,396.00
2017-12-30T11:20:03.772Z,368.00
2017-12-30T11:21:03.683Z,452.00
2017-12-30T11:22:03.750Z,500.00
2017-12-30T11:23:03.710Z,460.00
2017-12-30T11:24:03.720Z,392.00
2017-12-30T11:25:03.729Z,468.00
2017-12-30T11:26:03.742Z,556.00
2017-12-30T11:27:03.758Z,484.00
2017-12-30T11:28:03.771Z,448.00
2017-12-30T11:29:03.779Z,380.00
2017-12-30T11:30:03.793Z,472.00
2017-12-30T11:31:03.828Z,444.00
2017-12-30T11:32:03.818Z,464.00
2017-12-30T11:33:03.832Z,460.00
2017-12-30T11:34:03.841Z,632.00
2017-12-30T11:35:03.857Z,544.00
2017-12-30T11:36:03.869Z,436.00
2017-12-30T11:37:03.889Z,448.00
2017-12-30T11:38:03.892Z,484.00
2017-12-30T11:39:03.908Z,372.00
2017-12-30T11:40:03.918Z,380.00
2017-12-30T11:41:03.939Z,360.00
2017-12-30T11:42:03.942Z,316.00
2017-12-30T11:43:03.950Z,432.00
2017-12-30T11:44:03.964Z,432.00
2017-12-30T11:45:03.980Z,396.00
2017-12-30T11:46:03.989Z,424.00
2017-12-30T11:47:04.000Z,376.00
2017-12-30T11:48:04.014Z,492.00
2017-12-30T11:49:04.027Z,472.00
2017-12-30T11:50:04.050Z,472.00
2017-12-30T11:51:04.056Z,440.00
2017-12-30T11:52:04.065Z,504.00
2017-12-30T11:53:04.081Z,544.00
2017-12-30T11:54:04.094Z,436.00
2017-12-30T11:55:04.104Z,436.00
2017-12-30T11:56:04.117Z,348.00
2017-12-30T11:57:04.130Z,340.00
2017-12-30T11:58:04.144Z,396.00
2017-12-30T11:59:04.155Z,460.00
2017-12-30T12:00:04.169Z,500.00
2017-12-30T12:01:04.183Z,500.00
2017-12-30T12:02:04.194Z,460.00
2017-12-30T12:03:04.207Z,612.00
2017-12-30T12:04:04.221Z,580.00
2017-12-30T12:05:04.235Z,688.00
2017-12-30T12:06:04.247Z,628.00
2017-12-30T12:07:04.260Z,496.00
2017-12-30T12:08:04.274Z,536.00
2017-12-30T12:09:04.285Z,604.00
2017-12-30T12:10:04.298Z,664.00
2017-12-30T12:11:04.317Z,644.00
2017-12-30T12:12:04.327Z,544.00
2017-12-30T12:13:04.346Z,568.00
2017-12-30T12:14:04.352Z,504.00
2017-12-30T12:15:04.368Z,472.00
2017-12-30T12:16:04.384Z,472.00
2017-12-30T12:17:04.397Z,436.00
2017-12-30T12:18:04.416Z,472.00
2017-12-30T12:19:04.419Z,492.00
2017-12-30T12:20:04.432Z,620.00
2017-12-30T12:21:04.448Z,580.00
2017-12-30T12:22:04.459Z,620.00
2017-12-30T12:23:04.480Z,596.00
2017-12-30T12:24:04.485Z,660.00
2017-12-30T12:25:04.500Z,680.00
2017-12-30T12:26:04.516Z,532.00
2017-12-30T12:27:04.527Z,636.00
2017-12-30T12:28:04.548Z,724.00
2017-12-30T12:29:04.553Z,720.00
2017-12-30T12:30:04.566Z,424.00
2017-12-30T12:31:04.582Z,436.00
2017-12-30T12:32:04.595Z,416.00
2017-12-30T12:33:04.607Z,392.00
2017-12-30T12:34:04.622Z,468.00
2017-12-30T12:35:04.633Z,488.00
2017-12-30T12:36:04.648Z,544.00
2017-12-30T12:37:04.661Z,608.00
2017-12-30T12:38:04.675Z,588.00
2017-12-30T12:39:04.690Z,504.00
2017-12-30T12:40:04.704Z,616.00
2017-12-30T12:41:04.716Z,660.00
2017-12-30T12:42:04.729Z,820.00
2017-12-30T12:43:04.744Z,832.00
2017-12-30T12:44:04.760Z,732.00
2017-12-30T12:45:04.772Z,604.00
2017-12-30T12:46:04.785Z,448.00
2017-12-30T12:47:04.800Z,592.00
2017-12-30T12:48:04.816Z,628.00
2017-12-30T12:49:04.827Z,544.00
2017-12-30T12:50:04.841Z,572.00
2017-12-30T12:51:04.854Z,612.00
2017-12-30T12:52:04.869Z,444.00
2017-12-30T12:53:04.883Z,468.00
2017-12-30T12:54:04.909Z,652.00
2017-12-30T12:55:04.908Z,892.00
2017-12-30T12:56:04.925Z,988.00
2017-12-30T12:57:04.938Z,892.00
2017-12-30T12:58:04.951Z,696.00